sensor_id;sensor_type;location;lat;lon;timestamp;P1;durP1;ratioP1;P2;durP2;ratioP2
64917;SDS011;52176;44.858;38.372;2022-09-27T00:00:23;10.30;;;2.10;;
64917;SDS011;52176;44.858;38.372;2022-09-27T00:02:50;2.67;;;2.03;;
64917;SDS011;52176;44.858;38.372;2022-09-27T00:05:16;5.05;;;1.90;;
64917;SDS011;52176;44.858;38.372;2022-09-27T00:07:43;2.55;;;2.17;;
64917;SDS011;52176;44.858;38.372;2022-09-27T00:10:10;7.63;;;2.60;;
64917;SDS011;52176;44.858;38.372;2022-09-27T00:12:37;2.75;;;2.13;;
64917;SDS011;52176;44.858;38.372;2022-09-27T00:15:04;6.35;;;2.58;;
64917;SDS011;52176;44.858;38.372;2022-09-27T00:17:30;4.43;;;2.40;;
64917;SDS011;52176;44.858;38.372;2022-09-27T00:19:59;3.08;;;1.90;;
64917;SDS011;52176;44.858;38.372;2022-09-27T00:22:27;3.78;;;2.17;;
64917;SDS011;52176;44.858;38.372;2022-09-27T00:24:53;3.17;;;2.20;;
64917;SDS011;52176;44.858;38.372;2022-09-27T00:27:19;3.85;;;1.92;;
64917;SDS011;52176;44.858;38.372;2022-09-27T00:29:46;3.38;;;2.35;;
64917;SDS011;52176;44.858;38.372;2022-09-27T00:32:12;3.22;;;2.20;;
64917;SDS011;52176;44.858;38.372;2022-09-27T00:34:39;4.07;;;2.60;;
64917;SDS011;52176;44.858;38.372;2022-09-27T00:37:07;4.93;;;2.38;;
64917;SDS011;52176;44.858;38.372;2022-09-27T00:39:33;7.22;;;2.75;;
64917;SDS011;52176;44.858;38.372;2022-09-27T00:41:59;6.45;;;2.60;;
64917;SDS011;52176;44.858;38.372;2022-09-27T00:47:10;4.35;;;2.53;;
64917;SDS011;52176;44.858;38.372;2022-09-27T00:49:49;4.32;;;2.45;;
64917;SDS011;52176;44.858;38.372;2022-09-27T00:52:35;9.13;;;2.80;;
64917;SDS011;52176;44.858;38.372;2022-09-27T00:55:19;6.40;;;3.15;;
64917;SDS011;52176;44.858;38.372;2022-09-27T00:57:50;7.03;;;3.40;;
64917;SDS011;52176;44.858;38.372;2022-09-27T01:00:17;11.75;;;3.05;;
64917;SDS011;52176;44.858;38.372;2022-09-27T01:02:44;10.70;;;3.60;;
64917;SDS011;52176;44.858;38.372;2022-09-27T01:05:14;7.10;;;3.33;;
64917;SDS011;52176;44.858;38.372;2022-09-27T01:07:42;5.05;;;3.25;;
64917;SDS011;52176;44.858;38.372;2022-09-27T01:10:08;7.15;;;3.45;;
64917;SDS011;52176;44.858;38.372;2022-09-27T01:15:36;7.68;;;3.28;;
64917;SDS011;52176;44.858;38.372;2022-09-27T01:32:26;9.65;;;4.97;;
64917;SDS011;52176;44.858;38.372;2022-09-27T01:35:05;6.93;;;4.50;;
64917;SDS011;52176;44.858;38.372;2022-09-27T01:44:03;12.32;;;4.50;;
64917;SDS011;52176;44.858;38.372;2022-09-27T01:46:49;7.15;;;4.50;;
64917;SDS011;52176;44.858;38.372;2022-09-27T01:49:43;6.10;;;4.28;;
64917;SDS011;52176;44.858;38.372;2022-09-27T01:52:46;6.70;;;4.47;;
64917;SDS011;52176;44.858;38.372;2022-09-27T01:55:20;8.30;;;4.13;;
64917;SDS011;52176;44.858;38.372;2022-09-27T02:00:59;7.05;;;3.90;;
64917;SDS011;52176;44.858;38.372;2022-09-27T02:03:29;6.65;;;4.07;;
64917;SDS011;52176;44.858;38.372;2022-09-27T02:06:29;7.05;;;4.07;;
64917;SDS011;52176;44.858;38.372;2022-09-27T02:09:15;7.45;;;4.35;;
64917;SDS011;52176;44.858;38.372;2022-09-27T02:12:04;6.78;;;4.05;;
64917;SDS011;52176;44.858;38.372;2022-09-27T02:20:01;8.27;;;4.88;;
64917;SDS011;52176;44.858;38.372;2022-09-27T02:25:20;7.35;;;4.57;;
64917;SDS011;52176;44.858;38.372;2022-09-27T02:30:40;9.23;;;4.43;;
64917;SDS011;52176;44.858;38.372;2022-09-27T02:33:30;7.63;;;4.60;;
64917;SDS011;52176;44.858;38.372;2022-09-27T02:36:05;10.82;;;5.22;;
64917;SDS011;52176;44.858;38.372;2022-09-27T02:38:31;11.80;;;4.82;;
64917;SDS011;52176;44.858;38.372;2022-09-27T02:41:00;8.63;;;4.85;;
64917;SDS011;52176;44.858;38.372;2022-09-27T02:43:27;7.35;;;4.43;;
64917;SDS011;52176;44.858;38.372;2022-09-27T03:01:23;10.98;;;5.35;;
64917;SDS011;52176;44.858;38.372;2022-09-27T03:04:38;7.25;;;4.68;;
64917;SDS011;52176;44.858;38.372;2022-09-27T03:07:12;15.10;;;4.95;;
64917;SDS011;52176;44.858;38.372;2022-09-27T03:09:44;11.48;;;5.32;;
64917;SDS011;52176;44.858;38.372;2022-09-27T03:12:13;9.35;;;5.22;;
64917;SDS011;52176;44.858;38.372;2022-09-27T03:14:41;7.30;;;5.10;;
64917;SDS011;52176;44.858;38.372;2022-09-27T03:17:27;12.27;;;5.25;;
64917;SDS011;52176;44.858;38.372;2022-09-27T03:20:11;9.95;;;5.40;;
64917;SDS011;52176;44.858;38.372;2022-09-27T03:23:00;18.08;;;5.38;;
64917;SDS011;52176;44.858;38.372;2022-09-27T03:25:27;11.60;;;5.10;;
64917;SDS011;52176;44.858;38.372;2022-09-27T03:27:53;13.38;;;5.50;;
64917;SDS011;52176;44.858;38.372;2022-09-27T03:30:19;8.55;;;4.30;;
64917;SDS011;52176;44.858;38.372;2022-09-27T03:32:46;13.40;;;3.85;;
64917;SDS011;52176;44.858;38.372;2022-09-27T03:35:30;9.15;;;4.75;;
64917;SDS011;52176;44.858;38.372;2022-09-27T03:37:57;10.60;;;4.88;;
64917;SDS011;52176;44.858;38.372;2022-09-27T03:40:23;12.90;;;4.13;;
64917;SDS011;52176;44.858;38.372;2022-09-27T03:42:49;11.20;;;4.10;;
64917;SDS011;52176;44.858;38.372;2022-09-27T03:45:16;8.95;;;3.95;;
64917;SDS011;52176;44.858;38.372;2022-09-27T03:47:43;9.13;;;4.28;;
64917;SDS011;52176;44.858;38.372;2022-09-27T03:50:10;8.48;;;5.05;;
64917;SDS011;52176;44.858;38.372;2022-09-27T03:52:36;17.00;;;5.90;;
64917;SDS011;52176;44.858;38.372;2022-09-27T03:55:02;18.73;;;10.35;;
64917;SDS011;52176;44.858;38.372;2022-09-27T03:57:29;17.67;;;6.07;;
64917;SDS011;52176;44.858;38.372;2022-09-27T03:59:57;9.35;;;5.20;;
64917;SDS011;52176;44.858;38.372;2022-09-27T04:02:39;12.93;;;4.45;;
64917;SDS011;52176;44.858;38.372;2022-09-27T04:05:22;7.70;;;4.35;;
64917;SDS011;52176;44.858;38.372;2022-09-27T04:07:51;14.45;;;4.13;;
64917;SDS011;52176;44.858;38.372;2022-09-27T04:10:18;10.07;;;4.10;;
64917;SDS011;52176;44.858;38.372;2022-09-27T04:12:45;16.65;;;3.83;;
64917;SDS011;52176;44.858;38.372;2022-09-27T04:15:11;10.85;;;3.88;;
64917;SDS011;52176;44.858;38.372;2022-09-27T04:17:50;13.45;;;3.72;;
64917;SDS011;52176;44.858;38.372;2022-09-27T04:20:31;9.50;;;3.80;;
64917;SDS011;52176;44.858;38.372;2022-09-27T04:23:02;16.05;;;4.18;;
64917;SDS011;52176;44.858;38.372;2022-09-27T04:25:29;16.98;;;4.20;;
64917;SDS011;52176;44.858;38.372;2022-09-27T04:28:07;15.38;;;4.28;;
64917;SDS011;52176;44.858;38.372;2022-09-27T04:30:33;20.55;;;4.40;;
64917;SDS011;52176;44.858;38.372;2022-09-27T04:33:05;14.13;;;3.90;;
64917;SDS011;52176;44.858;38.372;2022-09-27T04:35:49;9.02;;;3.08;;
64917;SDS011;52176;44.858;38.372;2022-09-27T04:38:37;12.68;;;3.85;;
64917;SDS011;52176;44.858;38.372;2022-09-27T04:41:05;8.30;;;3.55;;
64917;SDS011;52176;44.858;38.372;2022-09-27T04:43:34;6.05;;;3.22;;
64917;SDS011;52176;44.858;38.372;2022-09-27T04:46:02;12.65;;;4.00;;
64917;SDS011;52176;44.858;38.372;2022-09-27T04:48:28;16.80;;;8.65;;
64917;SDS011;52176;44.858;38.372;2022-09-27T04:50:58;18.38;;;8.05;;
64917;SDS011;52176;44.858;38.372;2022-09-27T04:53:27;17.05;;;8.45;;
64917;SDS011;52176;44.858;38.372;2022-09-27T05:42:53;14.02;;;4.45;;
64917;SDS011;52176;44.858;38.372;2022-09-27T05:45:20;12.52;;;3.95;;
64917;SDS011;52176;44.858;38.372;2022-09-27T05:47:57;10.10;;;4.38;;
64917;SDS011;52176;44.858;38.372;2022-09-27T05:50:25;17.20;;;5.90;;
64917;SDS011;52176;44.858;38.372;2022-09-27T05:52:52;13.90;;;5.95;;
64917;SDS011;52176;44.858;38.372;2022-09-27T05:55:19;14.35;;;5.30;;
64917;SDS011;52176;44.858;38.372;2022-09-27T05:58:01;14.45;;;4.55;;
64917;SDS011;52176;44.858;38.372;2022-09-27T06:00:42;9.13;;;2.90;;
64917;SDS011;52176;44.858;38.372;2022-09-27T06:03:28;7.70;;;2.47;;
64917;SDS011;52176;44.858;38.372;2022-09-27T06:16:11;7.13;;;3.40;;
64917;SDS011;52176;44.858;38.372;2022-09-27T06:18:41;4.00;;;2.97;;
64917;SDS011;52176;44.858;38.372;2022-09-27T06:21:08;4.70;;;2.45;;
64917;SDS011;52176;44.858;38.372;2022-09-27T06:23:34;5.30;;;2.63;;
64917;SDS011;52176;44.858;38.372;2022-09-27T06:26:14;5.32;;;2.60;;
64917;SDS011;52176;44.858;38.372;2022-09-27T06:28:59;5.75;;;2.70;;
64917;SDS011;52176;44.858;38.372;2022-09-27T06:31:26;4.80;;;2.50;;
64917;SDS011;52176;44.858;38.372;2022-09-27T06:34:02;9.63;;;1.80;;
64917;SDS011;52176;44.858;38.372;2022-09-27T06:36:29;8.35;;;2.15;;
64917;SDS011;52176;44.858;38.372;2022-09-27T06:38:55;5.75;;;2.50;;
64917;SDS011;52176;44.858;38.372;2022-09-27T06:41:28;6.72;;;2.10;;
64917;SDS011;52176;44.858;38.372;2022-09-27T06:44:08;8.82;;;2.17;;
64917;SDS011;52176;44.858;38.372;2022-09-27T06:46:52;8.27;;;2.72;;
64917;SDS011;52176;44.858;38.372;2022-09-27T06:49:51;7.70;;;2.70;;
64917;SDS011;52176;44.858;38.372;2022-09-27T06:52:17;7.20;;;2.90;;
64917;SDS011;52176;44.858;38.372;2022-09-27T06:54:44;13.07;;;3.20;;
64917;SDS011;52176;44.858;38.372;2022-09-27T06:57:10;17.23;;;3.65;;
64917;SDS011;52176;44.858;38.372;2022-09-27T06:59:56;7.43;;;3.47;;
64917;SDS011;52176;44.858;38.372;2022-09-27T07:02:59;11.13;;;3.33;;
64917;SDS011;52176;44.858;38.372;2022-09-27T07:05:53;7.90;;;2.35;;
64917;SDS011;52176;44.858;38.372;2022-09-27T07:08:56;7.65;;;2.35;;
64917;SDS011;52176;44.858;38.372;2022-09-27T07:11:22;9.82;;;2.13;;
64917;SDS011;52176;44.858;38.372;2022-09-27T07:13:51;17.67;;;2.22;;
64917;SDS011;52176;44.858;38.372;2022-09-27T07:16:17;13.82;;;2.22;;
64917;SDS011;52176;44.858;38.372;2022-09-27T07:18:46;7.90;;;1.85;;
64917;SDS011;52176;44.858;38.372;2022-09-27T07:56:45;15.95;;;4.38;;
64917;SDS011;52176;44.858;38.372;2022-09-27T07:59:14;8.05;;;2.58;;
64917;SDS011;52176;44.858;38.372;2022-09-27T08:01:40;6.38;;;1.85;;
64917;SDS011;52176;44.858;38.372;2022-09-27T08:04:06;11.98;;;2.72;;
64917;SDS011;52176;44.858;38.372;2022-09-27T08:06:33;11.73;;;2.42;;
64917;SDS011;52176;44.858;38.372;2022-09-27T08:09:00;14.05;;;2.20;;
64917;SDS011;52176;44.858;38.372;2022-09-27T10:00:49;34.58;;;3.78;;
64917;SDS011;52176;44.858;38.372;2022-09-27T10:03:16;9.20;;;1.38;;
64917;SDS011;52176;44.858;38.372;2022-09-27T10:05:44;3.80;;;1.58;;
64917;SDS011;52176;44.858;38.372;2022-09-27T10:08:20;2.78;;;1.25;;
64917;SDS011;52176;44.858;38.372;2022-09-27T10:37:01;7.25;;;1.77;;
64917;SDS011;52176;44.858;38.372;2022-09-27T10:39:31;7.43;;;1.55;;
64917;SDS011;52176;44.858;38.372;2022-09-27T10:41:58;6.50;;;1.58;;
64917;SDS011;52176;44.858;38.372;2022-09-27T10:44:38;5.57;;;1.70;;
64917;SDS011;52176;44.858;38.372;2022-09-27T10:47:21;4.40;;;1.60;;
64917;SDS011;52176;44.858;38.372;2022-09-27T10:50:04;11.35;;;1.67;;
64917;SDS011;52176;44.858;38.372;2022-09-27T10:52:46;8.85;;;2.00;;
64917;SDS011;52176;44.858;38.372;2022-09-27T10:55:23;7.38;;;2.03;;
64917;SDS011;52176;44.858;38.372;2022-09-27T10:57:54;7.05;;;1.40;;
64917;SDS011;52176;44.858;38.372;2022-09-27T11:00:26;3.85;;;1.35;;
64917;SDS011;52176;44.858;38.372;2022-09-27T11:03:01;8.05;;;1.42;;
64917;SDS011;52176;44.858;38.372;2022-09-27T11:05:37;5.68;;;1.70;;
64917;SDS011;52176;44.858;38.372;2022-09-27T11:11:19;5.18;;;1.80;;
64917;SDS011;52176;44.858;38.372;2022-09-27T11:13:58;3.45;;;1.80;;
